Time;durP1;ratioP1;P1;durP2;ratioP2;P2;SDS_P1;SDS_P2;PMS_P1;PMS_P2;Temp;Humidity;BMP_temperature;BMP_pressure;BME280_temperature;BME280_humidity;BME280_pressure;Samples;Min_cycle;Max_cycle;Signal;HPM_P1;HPM_P2
2022/06/06 00:01:52;;;;;;;8.18;7.28;;;;;;;11.93;73.22;101660.59;1811671;77;21711;-92
2022/06/06 00:04:21;;;;;;;10.68;6.80;;;;;;;11.92;73.26;101655.75;1811156;77;20936;-92
2022/06/06 00:06:48;;;;;;;8.18;6.87;;;;;;;11.89;73.21;101649.44;1811022;77;21098;-91
2022/06/06 00:09:16;;;;;;;9.63;6.87;;;;;;;11.86;73.21;101644.53;1810418;77;21086;-92
2022/06/06 00:11:43;;;;;;;9.68;6.05;;;;;;;11.83;73.26;101641.78;1792915;77;21081;-92
2022/06/06 00:14:11;;;;;;;10.55;6.53;;;;;;;11.82;73.31;101639.09;1788634;78;21767;-91
2022/06/06 00:16:38;;;;;;;8.68;7.00;;;;;;;11.80;73.28;101632.44;1810928;77;21106;-90
2022/06/06 00:19:05;;;;;;;8.33;6.90;;;;;;;11.79;73.37;101642.53;1772126;79;21073;-90
2022/06/06 00:21:33;;;;;;;8.58;6.78;;;;;;;11.78;73.40;101630.59;1809876;77;21030;-90
2022/06/06 00:24:01;;;;;;;8.90;6.97;;;;;;;11.76;73.36;101630.97;1810272;78;21058;-91
2022/06/06 00:26:28;;;;;;;9.18;6.95;;;;;;;11.73;73.42;101625.58;1811280;78;21789;-92
2022/06/06 00:28:55;;;;;;;9.88;7.12;;;;;;;11.71;73.48;101622.88;1808267;77;21703;-92
2022/06/06 00:36:54;;;;;;;9.33;6.78;;;;;;;11.61;73.69;101606.28;1793405;76;20965;-93
2022/06/06 00:39:21;;;;;;;12.10;7.30;;;;;;;11.59;73.76;101600.06;1816085;76;21716;-92
2022/06/06 00:41:50;;;;;;;8.83;7.40;;;;;;;11.58;73.84;101598.26;1816146;76;21055;-92
2022/06/06 00:44:26;;;;;;;7.62;6.83;;;;;;;11.55;73.88;101595.53;1816214;76;21110;-91
2022/06/06 00:47:21;;;;;;;7.42;6.67;;;;;;;11.53;73.99;101597.23;1814756;76;22248;-91
2022/06/06 00:49:53;;;;;;;6.80;6.20;;;;;;;11.50;74.10;101588.77;1811464;77;21059;-92
2022/06/06 00:52:29;;;;;;;8.50;7.10;;;;;;;11.46;74.16;101583.80;1809494;77;21820;-92
2022/06/06 00:54:59;;;;;;;9.68;6.97;;;;;;;11.45;74.20;101590.38;1811644;78;21098;-93
2022/06/06 00:57:32;;;;;;;10.18;7.53;;;;;;;11.45;74.29;101595.64;1811951;77;21098;-93
2022/06/06 01:00:01;;;;;;;8.50;6.97;;;;;;;11.44;74.25;101596.04;1817570;77;21045;-92
2022/06/06 01:02:28;;;;;;;11.50;6.47;;;;;;;11.41;74.27;101591.08;1800113;78;21132;-93
2022/06/06 01:04:57;;;;;;;8.18;6.83;;;;;;;11.36;74.32;101589.61;1773259;80;21708;-91
2022/06/06 01:07:24;;;;;;;8.45;7.20;;;;;;;11.34;74.47;101591.73;1736847;81;21123;-92
2022/06/06 01:09:51;;;;;;;9.30;7.08;;;;;;;11.31;74.52;101593.82;1722672;82;21126;-91
2022/06/06 01:12:19;;;;;;;12.05;6.95;;;;;;;11.31;74.65;101592.50;1743286;80;21659;-92
2022/06/06 01:14:55;;;;;;;8.18;7.12;;;;;;;11.28;74.77;101586.71;1752461;80;21045;-91
2022/06/06 01:17:30;;;;;;;10.88;7.33;;;;;;;11.28;74.79;101582.77;1741750;80;21739;-91
2022/06/06 01:20:22;;;;;;;10.35;6.97;;;;;;;11.26;74.99;101560.73;1774682;80;21112;-90
2022/06/06 01:23:22;;;;;;;9.25;6.83;;;;;;;11.26;75.06;101555.86;1771702;79;21074;-89
2022/06/06 01:26:14;;;;;;;13.13;8.18;;;;;;;11.25;75.15;101551.45;1770677;79;21050;-91
2022/06/06 01:28:58;;;;;;;8.40;7.25;;;;;;;11.24;75.33;101541.33;1771664;79;20970;-90
2022/06/06 01:31:43;;;;;;;8.10;6.50;;;;;;;11.24;75.34;101545.28;1771720;79;21801;-90
2022/06/06 01:34:12;;;;;;;7.42;6.58;;;;;;;11.23;75.32;101536.00;1771044;79;21059;-90
2022/06/06 01:36:40;;;;;;;9.33;7.58;;;;;;;11.20;75.50;101516.13;1771331;79;21155;-92
2022/06/06 01:39:10;;;;;;;8.40;7.12;;;;;;;11.21;75.77;101514.86;1760658;79;21284;-92
2022/06/06 01:42:06;;;;;;;8.78;6.92;;;;;;;11.23;75.82;101521.51;1741413;81;21073;-91
2022/06/06 01:44:57;;;;;;;9.73;7.40;;;;;;;11.23;75.78;101528.98;1740175;79;21712;-91
2022/06/06 01:47:34;;;;;;;9.68;7.10;;;;;;;11.23;75.79;101536.89;1729153;80;21554;-90
2022/06/06 01:50:01;;;;;;;9.08;7.60;;;;;;;11.21;75.59;101537.69;1804272;77;21117;-91
2022/06/06 01:52:27;;;;;;;7.40;6.70;;;;;;;11.18;75.51;101536.25;1799082;78;21054;-91
2022/06/06 01:54:56;;;;;;;8.05;7.25;;;;;;;11.14;75.49;101533.93;1809648;78;21071;-90
2022/06/06 01:57:23;;;;;;;7.17;6.42;;;;;;;11.11;75.53;101532.92;1810381;79;21739;-91
2022/06/06 01:59:51;;;;;;;10.95;7.45;;;;;;;11.09;75.54;101535.50;1809659;78;21031;-92
2022/06/06 02:02:18;;;;;;;9.23;7.30;;;;;;;11.08;75.54;101531.09;1811375;77;21074;-92
2022/06/06 02:04:44;;;;;;;9.23;7.30;;;;;;;11.08;75.57;101524.50;1811229;78;21086;-92
2022/06/06 02:07:11;;;;;;;11.22;7.47;;;;;;;11.08;75.61;101531.98;1789038;77;21058;-92
2022/06/06 02:09:38;;;;;;;9.33;6.83;;;;;;;11.07;75.61;101528.88;1810553;77;21733;-91
2022/06/06 02:12:09;;;;;;;10.98;7.03;;;;;;;11.06;75.60;101535.41;1810086;77;21074;-90
2022/06/06 02:14:34;;;;;;;10.30;6.05;;;;;;;10.98;75.66;101511.43;1811252;77;21370;-91
2022/06/06 02:17:01;;;;;;;11.55;6.55;;;;;;;11.07;75.64;101522.30;1789832;78;21139;-92
2022/06/06 02:19:28;;;;;;;8.95;6.33;;;;;;;11.08;75.67;101524.50;1781560;79;21089;-92
2022/06/06 02:21:55;;;;;;;7.65;6.92;;;;;;;11.10;75.74;101525.45;1801158;79;21755;-91
2022/06/06 02:24:21;;;;;;;12.00;6.90;;;;;;;11.13;75.80;101524.25;1791240;78;21710;-92
2022/06/06 02:26:48;;;;;;;8.40;6.50;;;;;;;11.16;75.85;101518.18;1786462;79;21101;-91
2022/06/06 02:29:15;;;;;;;8.98;6.53;;;;;;;11.21;75.86;101514.86;1770789;79;21066;-91
2022/06/06 02:31:42;;;;;;;9.55;7.17;;;;;;;11.26;75.87;101514.61;1779396;79;21042;-92
2022/06/06 02:34:09;;;;;;;15.32;7.05;;;;;;;11.33;75.79;101510.86;1773710;79;21854;-92
2022/06/06 02:36:38;;;;;;;7.85;6.40;;;;;;;11.38;75.70;101516.76;1773981;79;21051;-91
2022/06/06 02:39:07;;;;;;;6.90;6.00;;;;;;;11.45;75.61;101521.40;1784340;79;21043;-91
2022/06/06 02:41:34;;;;;;;6.92;6.22;;;;;;;11.52;75.59;101513.25;1788537;78;21528;-91
2022/06/06 02:44:01;;;;;;;7.83;6.25;;;;;;;11.60;75.52;101517.45;1797221;78;21603;-92
2022/06/06 02:46:28;;;;;;;8.18;6.70;;;;;;;11.68;75.35;101519.52;1753903;80;21734;-93
2022/06/06 02:48:54;;;;;;;8.03;6.12;;;;;;;11.78;75.28;101521.14;1744661;81;21060;-93
2022/06/06 02:51:21;;;;;;;8.73;6.85;;;;;;;11.86;75.18;101512.63;1732769;81;21400;-92
2022/06/06 02:53:49;;;;;;;10.13;6.72;;;;;;;11.95;75.05;101508.09;1744650;81;21485;-93
2022/06/06 02:56:16;;;;;;;8.00;6.62;;;;;;;12.06;74.98;101515.02;1754815;81;21098;-92
2022/06/06 02:58:42;;;;;;;11.65;6.05;;;;;;;12.15;74.80;101515.75;1740653;80;22408;-93
2022/06/06 03:01:10;;;;;;;10.08;5.40;;;;;;;12.29;74.79;101514.40;1699842;81;21161;-92
2022/06/06 03:03:38;;;;;;;9.45;6.47;;;;;;;12.44;74.77;101508.28;1732480;81;21146;-91
2022/06/06 03:06:40;;;;;;;7.22;6.50;;;;;;;12.60;74.56;101510.93;1750219;81;21103;-92
2022/06/06 03:09:27;;;;;;;7.42;5.95;;;;;;;12.76;74.42;101512.68;1740718;81;21068;-92
2022/06/06 03:12:17;;;;;;;13.35;7.00;;;;;;;12.97;74.23;101510.66;1724044;81;21783;-92
2022/06/06 03:15:01;;;;;;;7.67;6.75;;;;;;;12.87;74.02;101460.15;1729636;81;21062;-92
2022/06/06 03:21:02;;;;;;;8.03;5.90;;;;;;;13.53;73.55;101511.72;1732222;80;21069;-95
2022/06/06 03:23:43;;;;;;;8.43;6.50;;;;;;;13.77;73.38;101505.22;1735155;82;21500;-92
2022/06/06 03:26:38;;;;;;;13.03;6.83;;;;;;;13.96;73.33;101494.63;1746575;80;22593;-92
2022/06/06 03:29:30;;;;;;;7.67;6.03;;;;;;;14.75;74.15;101499.47;1739498;81;21035;-92
2022/06/06 03:32:27;;;;;;;7.28;5.70;;;;;;;15.71;73.36;101499.41;1799455;77;21055;-92
2022/06/06 03:35:16;;;;;;;6.87;5.30;;;;;;;16.41;72.00;101497.78;1776551;77;21065;-90
2022/06/06 03:38:24;;;;;;;6.03;5.28;;;;;;;16.87;70.54;101491.28;1778998;79;21087;-90
2022/06/06 03:41:27;;;;;;;6.42;5.25;;;;;;;17.12;69.53;101492.86;1789720;79;21827;-91
2022/06/06 03:44:37;;;;;;;6.03;5.42;;;;;;;17.32;68.78;101494.80;1786512;79;21113;-90
2022/06/06 03:47:18;;;;;;;5.42;4.92;;;;;;;17.73;68.67;101496.92;1788562;78;21129;-91
2022/06/06 03:49:53;;;;;;;6.97;5.25;;;;;;;18.29;67.86;101492.88;1779042;79;21110;-90
2022/06/06 03:52:27;;;;;;;6.75;5.65;;;;;;;18.95;67.46;101482.47;1785181;77;21106;-95
2022/06/06 03:55:17;;;;;;;8.53;5.60;;;;;;;19.64;66.80;101477.63;1778592;79;21746;-90
2022/06/06 03:57:43;;;;;;;6.72;5.47;;;;;;;20.50;65.83;101475.65;1778587;79;21042;-89
2022/06/06 04:00:12;;;;;;;6.70;4.87;;;;;;;21.64;64.69;101478.05;1783215;79;21098;-89
2022/06/06 04:02:41;;;;;;;5.80;4.83;;;;;;;22.79;64.01;101474.07;1778440;79;21595;-89
2022/06/06 04:05:12;;;;;;;7.50;5.10;;;;;;;23.95;62.10;101473.55;1780265;77;21195;-89
2022/06/06 04:07:39;;;;;;;4.45;4.05;;;;;;;25.41;57.92;101461.86;1790188;77;23105;-91
2022/06/06 04:10:10;;;;;;;4.67;3.95;;;;;;;25.41;57.92;101461.86;1781312;79;21000;-90
2022/06/06 04:12:45;;;;;;;10.98;4.40;;;;;;;26.16;57.15;101475.13;1779577;79;21047;-90
2022/06/06 04:15:57;;;;;;;7.47;3.92;;;;;;;26.90;55.86;101476.15;1793634;77;21067;-89
2022/06/06 04:18:55;;;;;;;4.42;4.03;;;;;;;27.66;54.33;101475.91;1789745;77;22307;-88
2022/06/06 04:21:45;;;;;;;6.35;4.70;;;;;;;28.48;52.51;101481.97;1798427;79;21721;-90
2022/06/06 04:24:25;;;;;;;6.37;3.95;;;;;;;29.20;51.42;101479.62;1795472;79;21038;-90
2022/06/06 04:27:00;;;;;;;4.67;4.28;;;;;;;29.82;49.49;101473.36;1803338;77;20971;-89
2022/06/06 04:29:59;;;;;;;5.50;4.55;;;;;;;30.07;48.22;101473.64;1801786;77;21094;-89
2022/06/06 04:33:06;;;;;;;4.25;3.60;;;;;;;30.30;47.45;101467.15;1800629;78;21082;-89
2022/06/06 04:36:13;;;;;;;5.50;3.83;;;;;;;30.85;46.58;101475.02;1784421;78;22793;-94
2022/06/06 04:39:20;;;;;;;4.45;4.05;;;;;;;31.49;45.08;101463.69;1786547;79;21622;-93
2022/06/06 04:42:23;;;;;;;4.67;3.75;;;;;;;31.51;43.81;101467.70;1787728;79;21604;-91
2022/06/06 04:45:04;;;;;;;4.08;3.67;;;;;;;31.76;43.26;101471.40;1775005;79;21113;-93
2022/06/06 04:47:38;;;;;;;4.35;3.72;;;;;;;32.19;42.13;101466.41;1793759;78;21090;-95
2022/06/06 04:50:10;;;;;;;4.25;3.65;;;;;;;32.64;41.97;101466.20;1749759;80;21685;-92
2022/06/06 04:52:38;;;;;;;4.78;3.65;;;;;;;33.45;40.88;101463.80;1750020;81;21074;-92
2022/06/06 04:55:09;;;;;;;6.35;3.95;;;;;;;33.95;39.76;101457.12;1736790;81;21134;-90
2022/06/06 04:57:40;;;;;;;4.85;3.47;;;;;;;34.21;39.22;101454.14;1748749;81;21130;-91
2022/06/06 05:00:08;;;;;;;4.00;3.50;;;;;;;34.79;38.59;101451.38;1730331;79;21098;-90
2022/06/06 05:02:36;;;;;;;9.10;4.10;;;;;;;35.10;37.41;101449.31;1721211;81;21835;-90
2022/06/06 05:05:05;;;;;;;5.97;3.67;;;;;;;35.27;36.41;101452.31;1722648;80;21065;-93
2022/06/06 05:08:03;;;;;;;5.42;3.37;;;;;;;35.13;35.44;101451.86;1736073;81;21083;-91
2022/06/06 05:10:52;;;;;;;5.83;3.85;;;;;;;34.72;35.01;101450.03;1758541;80;21544;-89
2022/06/06 05:14:00;;;;;;;4.65;3.67;;;;;;;34.49;34.86;101450.14;1745795;80;21090;-89
2022/06/06 05:16:58;;;;;;;4.97;4.00;;;;;;;34.38;34.89;101449.47;1734902;81;21921;-89
2022/06/06 05:19:45;;;;;;;5.00;3.85;;;;;;;34.36;34.24;101456.89;1759862;80;21078;-88
2022/06/06 05:22:26;;;;;;;8.45;3.83;;;;;;;34.14;34.14;101462.80;1764776;80;21055;-89
2022/06/06 05:25:04;;;;;;;6.90;4.10;;;;;;;34.21;34.11;101473.27;1717693;81;21095;-89
2022/06/06 05:27:49;;;;;;;4.40;4.00;;;;;;;34.42;33.52;101471.02;1741505;80;21083;-89
2022/06/06 05:30:27;;;;;;;7.42;3.90;;;;;;;34.65;33.33;101469.55;1782202;77;21114;-89
2022/06/06 05:33:26;;;;;;;4.47;3.45;;;;;;;35.05;32.95;101472.90;1781415;79;21030;-88
2022/06/06 05:36:18;;;;;;;6.78;3.65;;;;;;;35.57;32.50;101473.95;1782764;79;21078;-89
2022/06/06 05:39:34;;;;;;;4.25;3.85;;;;;;;36.18;31.82;101468.32;1777918;79;21110;-89
2022/06/06 05:42:26;;;;;;;4.67;3.60;;;;;;;35.49;30.50;101472.25;1778331;79;21042;-89
2022/06/06 05:45:26;;;;;;;7.85;4.40;;;;;;;33.23;30.54;101477.86;1777035;79;21847;-90
2022/06/06 05:48:24;;;;;;;6.12;3.90;;;;;;;31.50;31.39;101478.20;1776534;79;21114;-89
2022/06/06 05:51:05;;;;;;;7.80;4.65;;;;;;;30.07;32.52;101476.81;1778473;79;21101;-89
2022/06/06 05:54:01;;;;;;;7.00;5.00;;;;;;;29.14;33.39;101473.11;1778438;79;21046;-88
2022/06/06 05:56:36;;;;;;;9.35;4.87;;;;;;;28.40;33.86;101473.23;1782209;79;21275;-90
2022/06/06 05:59:14;;;;;;;7.00;4.85;;;;;;;27.60;34.74;101468.89;1772583;79;21749;-90
2022/06/06 06:01:46;;;;;;;5.90;4.62;;;;;;;27.09;35.54;101474.61;1768314;79;21088;-90
2022/06/06 06:04:41;;;;;;;5.72;4.90;;;;;;;26.70;36.02;101470.88;1778340;79;21518;-90
2022/06/06 06:07:28;;;;;;;5.58;4.90;;;;;;;26.34;36.49;101474.20;1778355;79;21065;-90
2022/06/06 06:10:12;;;;;;;7.15;5.30;;;;;;;25.97;36.94;101468.50;1770472;79;21085;-89
2022/06/06 06:13:08;;;;;;;10.68;4.95;;;;;;;25.70;37.49;101456.64;1778872;77;22538;-89
2022/06/06 06:15:43;;;;;;;6.20;4.85;;;;;;;25.44;37.89;101464.05;1759596;78;21138;-88
2022/06/06 06:18:23;;;;;;;6.70;4.90;;;;;;;25.14;38.12;101458.47;1778684;78;34686;-88
2022/06/06 06:20:55;;;;;;;5.72;4.83;;;;;;;24.96;38.64;101459.34;1787383;78;21176;-89
2022/06/06 06:23:26;;;;;;;7.03;5.15;;;;;;;24.91;39.11;101453.61;1809338;78;21090;-90
2022/06/06 06:25:53;;;;;;;8.00;5.95;;;;;;;24.75;39.29;101455.31;1810081;78;21736;-89
2022/06/06 06:28:20;;;;;;;9.38;5.30;;;;;;;24.70;39.57;101457.69;1812230;78;21620;-88
2022/06/06 06:30:58;;;;;;;8.48;5.17;;;;;;;24.55;39.75;101454.44;1803460;78;21114;-89
2022/06/06 06:33:40;;;;;;;8.63;5.40;;;;;;;24.40;39.95;101451.58;1793811;78;21056;-90
2022/06/06 06:36:34;;;;;;;5.58;4.80;;;;;;;24.35;40.45;101440.49;1803193;78;21485;-90
2022/06/06 06:39:45;;;;;;;6.60;4.97;;;;;;;24.39;40.67;101444.41;1804423;78;21899;-90
2022/06/06 06:42:34;;;;;;;7.35;5.58;;;;;;;24.36;40.82;101444.94;1805071;78;20953;-90
2022/06/06 06:45:18;;;;;;;12.03;5.58;;;;;;;24.24;40.96;101430.83;1806904;78;20960;-90
2022/06/06 06:47:52;;;;;;;7.42;5.08;;;;;;;24.24;41.17;101446.09;1750989;80;21033;-90
2022/06/06 06:50:25;;;;;;;7.17;4.90;;;;;;;24.20;41.35;101445.27;1751272;80;21099;-90
2022/06/06 06:53:12;;;;;;;;;;;;;;;24.22;41.48;101439.86;1752522;80;21736;-90
2022/06/06 06:56:02;;;;;;;8.00;5.60;;;;;;;24.31;41.68;101438.33;1719787;80;20360;-88
2022/06/06 06:59:01;;;;;;;7.30;4.78;;;;;;;24.31;41.80;101440.14;1743905;80;21017;-89
2022/06/06 07:01:39;;;;;;;6.15;5.05;;;;;;;24.35;41.94;101435.11;1749701;80;21088;-89
2022/06/06 07:10:28;;;;;;;9.40;5.20;;;;;;;24.50;42.27;101424.01;1749135;80;21212;-89
2022/06/06 07:13:34;;;;;;;7.40;5.87;;;;;;;24.51;42.31;101425.77;1749344;80;21909;-89
2022/06/06 07:16:15;;;;;;;8.70;4.67;;;;;;;24.48;42.41;101419.59;1733620;81;21147;-89
2022/06/06 07:18:42;;;;;;;6.55;5.30;;;;;;;24.37;42.50;101408.59;1752362;80;21156;-89
2022/06/06 07:21:09;;;;;;;8.15;5.97;;;;;;;24.33;42.70;101407.36;1750678;80;22622;-88
2022/06/06 07:23:38;;;;;;;7.03;5.22;;;;;;;24.29;42.80;101406.53;1753839;80;21091;-88
2022/06/06 07:26:05;;;;;;;5.72;4.75;;;;;;;24.17;43.03;101408.12;1801360;78;21028;-88
2022/06/06 07:28:32;;;;;;;6.20;5.60;;;;;;;24.22;43.33;101406.23;1751901;78;21050;-89
2022/06/06 07:31:21;;;;;;;7.75;5.83;;;;;;;24.21;43.37;101401.33;1814520;77;21476;-88
2022/06/06 07:34:16;;;;;;;6.03;4.55;;;;;;;24.11;43.12;101405.58;1809583;78;21748;-88
2022/06/06 07:37:24;;;;;;;5.87;5.33;;;;;;;23.94;43.46;101413.98;1809401;78;21058;-88
2022/06/06 07:40:02;;;;;;;7.58;5.22;;;;;;;23.86;43.48;101406.95;1810545;77;21062;-89
2022/06/06 07:42:56;;;;;;;6.75;5.20;;;;;;;23.78;43.73;101409.31;1792704;78;21476;-88
2022/06/06 07:45:43;;;;;;;7.65;5.03;;;;;;;23.78;44.21;101409.31;1789989;77;21576;-89
2022/06/06 07:48:51;;;;;;;13.88;6.78;;;;;;;23.77;44.42;101404.88;1810401;77;21736;-88
2022/06/06 07:51:44;;;;;;;5.90;5.28;;;;;;;23.70;44.54;101397.84;1810189;77;21517;-88
2022/06/06 07:54:34;;;;;;;9.20;6.12;;;;;;;23.59;44.82;101400.72;1810866;77;21085;-88
2022/06/06 07:57:24;;;;;;;8.88;6.37;;;;;;;23.42;44.95;101401.03;1810315;77;21042;-88
2022/06/06 07:59:56;;;;;;;6.70;5.20;;;;;;;23.27;45.07;101408.47;1809044;77;21031;-88
2022/06/06 08:02:45;;;;;;;5.75;5.05;;;;;;;23.24;45.46;101404.95;1806644;78;21729;-88
2022/06/06 08:05:55;;;;;;;10.38;6.00;;;;;;;23.21;45.43;101403.18;1809051;77;21577;-88
2022/06/06 08:08:42;;;;;;;8.13;5.55;;;;;;;23.24;45.64;101404.48;1810347;78;21094;-88
2022/06/06 08:11:26;;;;;;;6.72;6.00;;;;;;;23.31;45.64;101394.50;1802592;77;21078;-88
2022/06/06 08:14:17;;;;;;;10.05;5.58;;;;;;;23.36;45.75;101395.78;1804244;78;21034;-88
2022/06/06 08:16:52;;;;;;;10.38;6.85;;;;;;;23.32;45.66;101393.60;1795167;78;21741;-88
2022/06/06 08:19:45;;;;;;;7.80;5.40;;;;;;;23.32;45.69;101393.60;1804702;78;21055;-88
2022/06/06 08:22:11;;;;;;;6.80;5.50;;;;;;;23.34;45.98;101396.27;1793963;79;21090;-89
2022/06/06 08:24:41;;;;;;;7.95;5.67;;;;;;;23.39;46.08;101389.90;1808920;77;21042;-88
2022/06/06 08:27:11;;;;;;;8.05;6.12;;;;;;;23.39;46.08;101389.90;1798874;78;21563;-88
2022/06/06 08:29:41;;;;;;;6.65;6.05;;;;;;;23.45;46.21;101388.91;1814516;77;21847;-88
2022/06/06 08:32:09;;;;;;;9.33;6.67;;;;;;;23.40;46.22;101379.56;1810496;77;21077;-89
2022/06/06 08:34:35;;;;;;;9.28;6.65;;;;;;;23.48;46.17;101392.42;1810412;78;21453;-89
2022/06/06 08:37:39;;;;;;;8.25;5.78;;;;;;;23.48;46.31;101394.20;1809676;77;21090;-88
2022/06/06 08:40:40;;;;;;;6.45;5.80;;;;;;;23.45;46.35;101391.12;1810518;77;21058;-88
2022/06/06 08:43:18;;;;;;;6.72;5.70;;;;;;;23.36;46.71;101360.39;1809826;77;21715;-88
2022/06/06 08:46:00;;;;;;;7.15;6.45;;;;;;;23.58;46.73;101392.25;1809815;78;21066;-88
2022/06/06 08:49:10;;;;;;;6.33;5.58;;;;;;;23.61;46.76;101387.70;1809444;77;21026;-88
2022/06/06 08:51:48;;;;;;;7.30;5.85;;;;;;;23.71;46.88;101380.81;1810515;78;21047;-90
2022/06/06 08:54:32;;;;;;;14.70;11.93;;;;;;;23.82;46.98;101379.71;1811049;77;21039;-88
2022/06/06 08:57:07;;;;;;;11.08;7.75;;;;;;;23.89;46.81;101383.14;1809697;78;21710;-89
2022/06/06 09:00:11;;;;;;;11.08;7.40;;;;;;;23.96;46.79;101370.01;1812759;78;20975;-88
2022/06/06 09:03:01;;;;;;;11.83;7.10;;;;;;;23.98;46.43;101376.70;1812903;78;20956;-88
2022/06/06 09:05:51;;;;;;;7.95;5.90;;;;;;;24.01;46.40;101373.49;1810805;78;21122;-89
2022/06/06 09:08:42;;;;;;;9.50;6.30;;;;;;;24.08;46.50;101367.97;1809861;77;21046;-89
2022/06/06 09:11:20;;;;;;;8.28;6.10;;;;;;;24.12;46.17;101371.02;1810433;77;21750;-88
2022/06/06 09:14:16;;;;;;;7.95;6.37;;;;;;;24.16;46.44;101369.59;1809977;78;21083;-89
2022/06/06 09:17:03;;;;;;;8.23;6.17;;;;;;;24.24;46.29;101366.73;1741024;82;21101;-88
2022/06/06 09:20:15;;;;;;;6.25;5.75;;;;;;;24.34;46.28;101355.30;1740892;81;21180;-89
2022/06/06 09:23:21;;;;;;;9.13;7.83;;;;;;;24.51;45.98;101352.22;1745417;81;21665;-89
2022/06/06 09:26:04;;;;;;;7.65;6.95;;;;;;;24.70;45.76;101344.63;1740373;81;22649;-89
2022/06/06 09:28:45;;;;;;;8.93;6.72;;;;;;;24.98;45.41;101346.16;1709756;82;21049;-89
2022/06/06 09:31:53;;;;;;;6.50;5.85;;;;;;;25.18;45.09;101337.11;1737609;82;21105;-90
2022/06/06 09:34:46;;;;;;;4.95;4.55;;;;;;;25.37;44.66;101342.04;1735386;81;21078;-89
2022/06/06 09:37:31;;;;;;;8.15;6.17;;;;;;;25.52;44.12;101336.70;1721475;81;21125;-89
2022/06/06 09:40:06;;;;;;;5.67;4.15;;;;;;;25.77;43.71;101338.22;1735534;81;22581;-89
2022/06/06 09:42:40;;;;;;;6.33;3.98;;;;;;;25.98;43.21;101334.94;1734809;82;21081;-89
2022/06/06 09:45:33;;;;;;;4.03;3.72;;;;;;;26.20;42.69;101335.61;1733261;82;21081;-89
2022/06/06 09:48:36;;;;;;;5.67;4.47;;;;;;;26.33;42.13;101337.03;1743819;81;21084;-89
2022/06/06 09:52:00;;;;;;;7.85;6.10;;;;;;;26.43;42.07;101332.22;1735845;82;21114;-88
2022/06/06 10:01:16;;;;;;;8.05;6.37;;;;;;;26.89;41.16;101322.62;1804457;78;20181;-89
2022/06/06 10:04:17;;;;;;;11.85;10.30;;;;;;;26.93;41.07;101320.25;1802775;78;21047;-89
2022/06/06 10:07:15;;;;;;;4.80;4.40;;;;;;;26.91;40.73;101320.74;1803605;78;21589;-89
2022/06/06 10:10:22;;;;;;;5.40;4.47;;;;;;;26.77;40.21;101323.05;1803497;78;22365;-89
2022/06/06 10:13:24;;;;;;;4.97;4.17;;;;;;;26.67;40.05;101311.67;1742033;81;21014;-89
2022/06/06 10:16:35;;;;;;;4.42;4.00;;;;;;;26.64;39.96;101312.24;1740066;80;21732;-89
2022/06/06 10:19:35;;;;;;;5.10;4.00;;;;;;;26.65;39.82;101312.16;1780212;77;21106;-89
2022/06/06 10:22:30;;;;;;;17.12;14.60;;;;;;;26.74;39.90;101307.81;1797086;77;21081;-89
2022/06/06 10:25:21;;;;;;;7.85;5.50;;;;;;;26.91;39.85;101305.88;1788303;78;21742;-89
2022/06/06 10:28:18;;;;;;;6.15;3.98;;;;;;;27.04;39.42;101295.54;1758417;77;21126;-89
2022/06/06 10:31:14;;;;;;;4.40;3.98;;;;;;;27.01;38.76;101302.87;1742816;79;21086;-89
2022/06/06 10:34:09;;;;;;;20.90;4.25;;;;;;;26.98;38.97;101305.70;1738139;79;21047;-89
2022/06/06 10:36:50;;;;;;;6.65;4.08;;;;;;;26.98;38.93;101303.00;1743225;79;21599;-88
2022/06/06 10:39:39;;;;;;;4.33;3.90;;;;;;;26.91;38.82;101305.02;1751613;79;21686;-88
2022/06/06 10:42:32;;;;;;;4.87;4.28;;;;;;;26.94;38.90;101308.48;1745076;79;21133;-89
2022/06/06 10:45:34;;;;;;;4.05;3.67;;;;;;;26.97;38.96;101306.14;1745299;79;21172;-88
2022/06/06 10:48:46;;;;;;;3.67;3.37;;;;;;;26.91;38.54;101303.18;1748971;79;21122;-88
2022/06/06 10:51:42;;;;;;;4.08;3.70;;;;;;;26.90;38.55;101296.51;1754907;80;21629;-89
2022/06/06 10:54:48;;;;;;;3.35;3.05;;;;;;;26.87;38.33;101303.36;1755822;79;21105;-89
2022/06/06 10:57:48;;;;;;;3.90;3.02;;;;;;;26.75;38.02;101301.48;1747856;80;21092;-89
2022/06/06 11:00:29;;;;;;;5.22;4.58;;;;;;;26.66;38.16;101292.34;1763798;80;21069;-90
2022/06/06 11:03:35;;;;;;;4.95;4.00;;;;;;;26.65;38.28;101282.46;1736793;81;21328;-89
2022/06/06 11:06:13;;;;;;;7.50;3.55;;;;;;;26.61;38.22;101288.91;1753371;80;21157;-89
2022/06/06 11:09:08;;;;;;;9.38;6.35;;;;;;;26.41;38.25;101294.95;1750554;80;22622;-89
2022/06/06 11:12:18;;;;;;;4.83;4.37;;;;;;;26.33;38.57;101288.89;1748549;80;21090;-89
2022/06/06 11:14:44;;;;;;;5.33;3.75;;;;;;;26.36;38.76;101291.50;1757181;79;21049;-89
2022/06/06 11:17:37;;;;;;;4.20;3.70;;;;;;;26.37;38.72;101291.91;1744598;80;21074;-89
2022/06/06 11:20:28;;;;;;;7.12;4.50;;;;;;;26.43;38.85;101282.28;1752506;81;21050;-89
2022/06/06 11:23:23;;;;;;;8.00;5.95;;;;;;;26.52;38.72;101280.63;1745580;80;22546;-89
2022/06/06 11:26:22;;;;;;;4.47;3.62;;;;;;;26.61;38.34;101285.33;1756754;80;21073;-89
2022/06/06 11:29:31;;;;;;;4.20;3.80;;;;;;;26.69;38.51;101285.50;1777669;79;21929;-89
2022/06/06 11:32:40;;;;;;;6.45;3.75;;;;;;;26.82;38.30;101289.98;1770612;79;21050;-88
2022/06/06 11:35:41;;;;;;;6.80;3.62;;;;;;;26.90;38.07;101281.17;1778983;79;21133;-90
2022/06/06 11:38:29;;;;;;;7.30;3.27;;;;;;;26.96;37.62;101284.13;1745817;80;21857;-90
2022/06/06 11:41:19;;;;;;;5.15;3.67;;;;;;;26.95;37.56;101279.65;1750925;80;21588;-89
2022/06/06 11:44:21;;;;;;;4.92;3.58;;;;;;;26.89;37.40;101279.88;1726390;81;21652;-89
2022/06/06 11:46:59;;;;;;;3.80;3.30;;;;;;;26.76;37.24;101274.88;1785520;78;21137;-89
2022/06/06 11:49:52;;;;;;;3.95;3.55;;;;;;;26.68;37.33;101276.09;1789109;78;21086;-88
2022/06/06 11:52:50;;;;;;;13.88;10.10;;;;;;;26.73;37.39;101278.18;1788176;79;21067;-88
2022/06/06 11:55:59;;;;;;;3.75;3.45;;;;;;;26.82;37.43;101274.27;1779139;79;21931;-89
2022/06/06 11:58:51;;;;;;;4.35;3.95;;;;;;;26.96;37.39;101273.33;1780376;78;21133;-89
2022/06/06 12:01:42;;;;;;;5.00;3.67;;;;;;;27.17;37.29;101272.15;1782052;79;21102;-88
2022/06/06 12:04:30;;;;;;;5.70;3.85;;;;;;;27.32;36.80;101264.38;1777530;79;21099;-89
2022/06/06 12:07:17;;;;;;;3.50;3.20;;;;;;;27.42;36.75;101262.22;1779072;77;22219;-89
2022/06/06 12:10:12;;;;;;;11.33;3.80;;;;;;;27.48;36.63;101266.06;1737884;78;20976;-89
2022/06/06 12:13:13;;;;;;;9.83;5.60;;;;;;;27.52;36.57;101270.41;1787343;78;21047;-90
2022/06/06 12:16:00;;;;;;;4.45;4.05;;;;;;;27.58;36.52;101269.30;1787112;78;22208;-89
2022/06/06 12:19:00;;;;;;;5.97;4.50;;;;;;;27.63;36.27;101267.31;1783898;79;21564;-89
2022/06/06 12:21:59;;;;;;;4.92;4.42;;;;;;;27.58;36.06;101263.89;1776771;79;21746;-89
2022/06/06 12:24:42;;;;;;;6.62;4.00;;;;;;;27.59;36.16;101258.91;1781375;79;21063;-88
2022/06/06 12:27:46;;;;;;;3.92;3.45;;;;;;;27.70;36.28;101267.94;1780381;78;21616;-88
2022/06/06 12:31:07;;;;;;;4.97;4.20;;;;;;;27.82;36.16;101259.84;1781656;79;21029;-88
2022/06/06 12:33:37;;;;;;;4.75;4.17;;;;;;;27.94;36.14;101268.84;1782853;79;21141;-89
2022/06/06 12:36:43;;;;;;;4.85;4.00;;;;;;;28.14;36.10;101258.59;1782174;79;21736;-89
2022/06/06 12:39:32;;;;;;;5.83;3.98;;;;;;;28.31;36.01;101264.19;1786240;78;21046;-88
2022/06/06 12:42:30;;;;;;;4.72;4.25;;;;;;;28.47;35.86;101260.39;1778639;79;21062;-89
2022/06/06 12:45:38;;;;;;;10.35;5.33;;;;;;;28.64;35.74;101255.66;1692554;82;21065;-89
2022/06/06 12:48:36;;;;;;;4.55;4.10;;;;;;;28.85;35.74;101259.71;1738215;81;21102;-89
2022/06/06 12:51:17;;;;;;;4.75;3.90;;;;;;;29.04;35.61;101257.11;1740917;81;21861;-92
2022/06/06 12:54:07;;;;;;;4.17;3.50;;;;;;;29.11;35.10;101246.37;1737748;81;21075;-92
2022/06/06 12:56:56;;;;;;;4.25;3.85;;;;;;;29.11;35.14;101249.08;1739040;81;21118;-89
2022/06/06 12:59:40;;;;;;;6.83;3.40;;;;;;;29.19;35.05;101240.18;1730225;80;21614;-90
2022/06/06 13:02:44;;;;;;;6.45;3.25;;;;;;;29.32;35.14;101244.58;1738414;81;21095;-90
2022/06/06 13:05:31;;;;;;;4.10;3.70;;;;;;;29.45;34.92;101237.63;1731358;81;22542;-90